createdAt,value
2017-11-19T00:09:34.161Z,19.82
2017-11-19T00:12:01.362Z,19.82
2017-11-19T00:17:08.184Z,19.81
2017-11-19T00:37:23.667Z,19.79
2017-11-19T00:39:50.901Z,19.79
2017-11-19T00:44:51.335Z,19.79
2017-11-19T00:47:18.618Z,19.79
2017-11-19T00:49:45.867Z,19.78
2017-11-19T00:52:13.126Z,19.78
2017-11-19T00:54:40.356Z,19.78
2017-11-19T00:57:07.562Z,19.76
2017-11-19T00:59:42.015Z,19.78
2017-11-19T01:02:18.814Z,19.77
2017-11-19T03:52:06.099Z,19.63
2017-11-19T04:58:35.853Z,19.58
2017-11-19T05:24:13.089Z,19.58
2017-11-19T05:38:32.503Z,19.58
2017-11-19T07:54:15.286Z,20.23
2017-11-19T07:56:42.530Z,20.26
2017-11-19T07:59:09.694Z,20.27
2017-11-19T08:01:36.925Z,20.28
2017-11-19T08:04:04.157Z,20.28
2017-11-19T08:06:31.472Z,20.27
2017-11-19T08:08:58.733Z,20.31
2017-11-19T08:11:25.920Z,20.32
2017-11-19T08:13:53.134Z,20.33
2017-11-19T08:16:20.381Z,20.33
2017-11-19T08:18:47.569Z,20.34
2017-11-19T08:21:14.761Z,20.35
2017-11-19T08:23:42.018Z,20.35
2017-11-19T08:26:09.229Z,20.37
2017-11-19T08:28:36.429Z,20.38
2017-11-19T08:31:03.615Z,20.40
2017-11-19T08:33:30.850Z,20.42
2017-11-19T08:35:58.040Z,20.45
2017-11-19T08:38:25.294Z,20.46
2017-11-19T08:40:52.532Z,20.47
2017-11-19T08:43:19.705Z,20.49
2017-11-19T08:45:46.898Z,20.51
2017-11-19T08:48:14.100Z,20.53
2017-11-19T08:50:41.297Z,20.55
2017-11-19T08:53:08.513Z,20.57
2017-11-19T08:55:35.778Z,20.58
2017-11-19T08:58:03.056Z,20.59
2017-11-19T09:00:31.794Z,20.61
2017-11-19T09:02:59.086Z,20.62
2017-11-19T09:46:13.636Z,20.74
2017-11-19T10:15:08.177Z,20.79
2017-11-19T13:22:31.677Z,20.00
2017-11-19T13:24:58.868Z,20.01
2017-11-19T13:27:26.035Z,20.01
2017-11-19T13:29:53.290Z,20.00
2017-11-19T13:32:20.518Z,20.00
2017-11-19T13:34:47.738Z,20.00
2017-11-19T13:37:15.022Z,19.99
2017-11-19T13:39:42.277Z,20.00
2017-11-19T13:42:09.550Z,20.00
2017-11-19T13:44:36.873Z,19.99
2017-11-19T13:47:04.065Z,19.99
2017-11-19T13:52:34.268Z,19.99
2017-11-19T13:55:01.441Z,19.98
2017-11-19T15:53:15.021Z,19.84
2017-11-19T18:58:43.817Z,19.60
2017-11-19T19:01:11.102Z,19.60
2017-11-19T19:03:38.382Z,19.59
2017-11-19T19:06:05.658Z,19.58
2017-11-19T19:08:32.942Z,19.58
2017-11-19T19:11:00.274Z,19.58
2017-11-19T19:13:27.709Z,19.57
2017-11-19T19:27:07.260Z,19.54
2017-11-19T19:29:34.583Z,19.53
2017-11-19T19:32:01.883Z,19.53
2017-11-19T20:18:25.049Z,19.43
2017-11-19T20:20:52.303Z,19.42
2017-11-19T20:23:20.499Z,19.42
2017-11-19T20:25:47.862Z,19.43
2017-11-19T20:28:15.197Z,19.43
2017-11-19T20:30:42.489Z,19.42
2017-11-19T20:33:09.762Z,19.41
2017-11-19T20:35:37.062Z,19.42
2017-11-19T20:38:04.318Z,19.42
2017-11-19T20:40:31.643Z,19.42
2017-11-19T20:42:58.943Z,19.40
2017-11-19T20:45:26.158Z,19.40
2017-11-19T20:47:53.490Z,19.41
2017-11-19T20:50:20.762Z,19.40
2017-11-19T20:52:48.102Z,19.39
2017-11-19T20:55:15.382Z,19.38
2017-11-19T20:57:43.731Z,19.38
2017-11-19T21:00:11.169Z,19.38
2017-11-19T21:02:38.461Z,19.38
2017-11-19T22:46:34.396Z,19.13
2017-11-19T22:55:10.615Z,19.10
